.
WxDataArchive / Data Records for 2011-06-14
2011-06-13 June 2011 2011-06-15

Data Records for Tuesday, 14 June 2011

Time	Temp	Chill	HIndex	Humid	Dewpt	 Wind 	HiWind	WindDir	Rain 	Barom 
-----	----	-----	------	-----	-----	------	------	-------	-----	----- 
00:00	60.5	60.5	60.5	68	49.9	0	0	---	0.00	30.042 
00:05	61.0	61.0	61.0	66	49.6	0	0	---	0.00	30.042 
00:10	61.3	61.3	61.3	66	49.8	0	0	---	0.00	30.042 
00:15	61.5	61.5	61.5	67	50.4	0	0	---	0.00	30.041 
00:20	61.3	61.3	61.3	67	50.2	0	0	---	0.00	30.041 
00:25	61.3	61.3	61.3	68	50.6	0	0	---	0.00	30.041 
00:30	61.3	61.3	61.3	68	50.6	0	0	---	0.00	30.041 
00:35	61.2	61.2	61.2	69	50.9	0	0	---	0.00	30.041 
00:40	61.2	61.2	61.2	69	50.9	0	0	---	0.00	30.041 
00:45	61.2	61.2	61.2	69	50.9	0	0	---	0.00	30.036 
00:50	61.2	61.2	61.2	69	50.9	0	0	---	0.00	30.036 
00:55	61.3	61.3	61.3	69	51.0	0	0	---	0.00	30.036 
01:00	61.3	61.3	61.3	69	51.0	0	0	---	0.00	30.031 
01:05	61.3	61.3	61.3	68	50.6	0	0	---	0.00	30.031 
01:10	61.2	61.2	61.2	69	50.9	0	0	---	0.00	30.031 
01:15	61.0	61.0	61.0	69	50.8	0	0	---	0.00	30.026 
01:20	61.0	61.0	61.0	69	50.8	0	1	112	0.00	30.026 
01:25	61.0	61.0	61.0	69	50.8	0	0	---	0.00	30.026 
01:30	60.9	60.9	60.9	69	50.7	0	0	---	0.00	30.026 
01:35	60.9	60.9	60.9	69	50.7	0	0	---	0.00	30.026 
01:40	60.7	60.7	60.7	69	50.5	0	0	---	0.00	30.026 
01:45	60.7	60.7	60.7	69	50.5	0	0	---	0.00	30.025 
01:50	60.7	60.7	60.7	69	50.5	0	0	---	0.00	30.025 
01:55	60.5	60.5	60.5	69	50.3	0	0	---	0.00	30.025 
02:00	60.5	60.5	60.5	69	50.3	0	0	---	0.00	30.033 
02:05	60.4	60.4	60.4	69	50.2	0	0	---	0.00	30.033 
02:10	60.2	60.2	60.2	69	50.0	0	0	---	0.00	30.033 
02:15	60.1	60.1	60.1	70	50.3	0	0	---	0.00	30.039 
02:20	59.9	59.9	59.9	70	50.1	0	0	---	0.00	30.039 
02:25	59.8	59.8	59.8	71	50.4	0	0	---	0.00	30.039 
02:30	59.6	59.6	59.6	72	50.6	0	0	---	0.00	30.040 
02:35	59.5	59.5	59.5	72	50.5	0	0	---	0.00	30.040 
02:40	59.5	59.5	59.5	72	50.5	0	0	---	0.00	30.040 
02:45	59.3	59.3	59.3	73	50.6	0	1	112	0.00	30.043 
02:50	59.3	59.3	59.3	73	50.6	0	3	112	0.00	30.043 
02:55	59.5	59.5	59.5	73	50.8	0	1	112	0.00	30.043 
03:00	59.5	59.5	59.5	73	50.8	0	1	112	0.00	30.040 
03:05	59.5	59.5	59.5	73	50.8	0	0	---	0.00	30.040 
03:10	59.5	59.5	59.5	73	50.8	0	0	---	0.00	30.040 
03:15	59.5	59.5	59.5	73	50.8	0	2	112	0.00	30.032 
03:20	59.5	59.5	59.5	73	50.8	0	1	112	0.00	30.032 
03:25	59.5	59.5	59.5	73	50.8	0	2	112	0.00	30.032 
03:30	59.6	59.6	59.6	73	50.9	0	2	112	0.00	30.038 
03:35	59.5	59.5	59.5	73	50.8	0	0	---	0.00	30.038 
03:40	59.5	59.5	59.5	73	50.8	0	0	---	0.00	30.038 
03:45	59.2	59.2	59.2	74	50.9	0	0	---	0.00	30.050 
03:50	59.0	59.0	59.0	75	51.1	0	1	112	0.00	30.050 
03:55	58.9	58.9	58.9	75	51.0	0	1	112	0.00	30.050 
04:00	58.9	58.9	58.9	75	51.0	0	2	112	0.00	30.045 
04:05	58.9	58.9	58.9	75	51.0	0	3	112	0.00	30.045 
04:10	58.7	58.7	58.7	75	50.8	1	3	112	0.00	30.045 
04:15	58.7	58.7	58.7	75	50.8	0	2	112	0.00	30.041 
04:20	58.6	58.6	58.6	76	51.1	0	2	112	0.00	30.041 
04:25	58.4	58.4	58.4	77	51.2	0	1	112	0.00	30.041 
04:30	58.1	58.1	58.1	77	50.9	0	0	---	0.00	30.046 
04:35	58.0	58.0	58.0	77	50.8	0	0	---	0.00	30.046 
04:40	57.8	57.8	57.8	78	51.0	0	0	---	0.00	30.046 
04:45	57.5	57.5	57.5	78	50.7	0	0	---	0.00	30.050 
04:50	57.3	57.3	57.3	79	50.8	0	0	---	0.00	30.050 
04:55	57.0	57.0	57.0	80	50.9	0	0	---	0.00	30.050 
05:00	56.9	56.9	56.9	80	50.8	0	0	---	0.00	30.054 
05:05	56.7	56.7	56.7	81	50.9	0	0	---	0.00	30.054 
05:10	56.6	56.6	56.6	81	50.8	0	0	---	0.00	30.054 
05:15	56.5	56.5	56.5	82	51.1	0	0	---	0.00	30.050 
05:20	56.3	56.3	56.3	82	50.9	0	0	---	0.00	30.050 
05:25	56.3	56.3	56.3	83	51.2	0	0	---	0.00	30.050 
05:30	56.2	56.2	56.2	84	51.4	0	0	---	0.00	30.057 
05:35	56.2	56.2	56.2	84	51.4	0	0	---	0.00	30.057 
05:40	56.0	56.0	56.0	84	51.2	0	0	---	0.00	30.057 
05:45	55.9	55.9	55.9	84	51.1	0	0	---	0.00	30.059 
05:50	55.9	55.9	55.9	84	51.1	0	0	---	0.00	30.059 
05:55	55.9	55.9	55.9	84	51.1	0	0	---	0.00	30.059 
06:00	55.9	55.9	55.9	84	51.1	0	0	---	0.00	30.060 
06:05	55.9	55.9	55.9	84	51.1	0	0	---	0.00	30.060 
06:10	55.7	55.7	55.7	84	50.9	0	0	---	0.00	30.060 
06:15	55.7	55.7	55.7	84	50.9	0	0	---	0.00	30.072 
06:20	55.6	55.6	55.6	85	51.2	0	0	---	0.00	30.072 
06:25	55.6	55.6	55.6	85	51.2	0	0	---	0.00	30.072 
06:30	55.6	55.6	55.6	85	51.2	0	0	---	0.00	30.076 
06:35	55.6	55.6	55.6	85	51.2	0	0	---	0.00	30.076 
06:40	55.6	55.6	55.6	85	51.2	0	0	---	0.00	30.076 
06:45	55.7	55.7	55.7	85	51.3	0	0	---	0.00	30.086 
06:50	55.7	55.7	55.7	85	51.3	0	0	---	0.00	30.086 
06:55	55.9	55.9	55.9	85	51.5	0	0	---	0.00	30.086 
07:00	56.2	56.2	56.2	85	51.7	0	0	---	0.00	30.094 
07:05	56.3	56.3	56.3	85	51.8	0	0	---	0.00	30.094 
07:10	56.5	56.5	56.5	84	51.7	0	0	---	0.00	30.094 
07:15	56.9	56.9	56.9	84	52.1	0	0	---	0.00	30.101 
07:20	57.2	57.2	57.2	82	51.8	0	1	112	0.00	30.101 
07:25	57.6	57.6	57.6	80	51.5	0	1	112	0.00	30.101 
07:30	58.1	58.1	58.1	79	51.6	0	1	112	0.00	30.096 
07:35	58.7	58.7	58.7	77	51.5	0	2	112	0.00	30.096 
07:40	59.2	59.2	59.2	76	51.6	0	1	112	0.00	30.096 
07:45	59.5	59.5	59.5	74	51.2	0	3	112	0.00	30.098 
07:50	59.6	59.6	59.6	74	51.3	1	5	90	0.00	30.098 
07:55	59.6	59.6	59.6	73	50.9	1	4	90	0.00	30.098 
08:00	59.5	59.5	59.5	73	50.8	2	4	90	0.00	30.102 
08:05	59.6	59.6	59.6	74	51.3	1	3	112	0.00	30.102 
08:10	59.6	59.6	59.6	73	50.9	2	4	90	0.00	30.102 
08:15	59.8	59.8	59.8	73	51.1	1	6	90	0.00	30.105 
08:20	59.9	59.9	59.9	74	51.6	1	6	90	0.00	30.105 
08:25	60.1	60.1	60.1	73	51.4	1	5	90	0.00	30.105 
08:30	60.5	60.5	60.5	73	51.8	0	3	90	0.00	30.118 
08:35	60.7	60.7	60.7	70	50.9	2	4	112	0.00	30.118 
08:40	61.2	61.2	61.2	70	51.3	1	3	112	0.00	30.118 
08:45	62.0	62.0	62.0	70	52.1	2	4	90	0.00	30.109 
08:50	62.3	62.3	62.3	68	51.6	3	5	90	0.00	30.109 
08:55	62.3	62.3	62.3	69	52.0	3	9	112	0.00	30.109 
09:00	62.4	62.4	62.4	68	51.7	2	5	112	0.00	30.109 
09:05	62.7	62.7	62.7	69	52.4	2	7	90	0.00	30.109 
09:10	63.2	63.2	63.2	67	52.1	2	5	90	0.00	30.109 
09:15	63.5	63.5	63.5	66	51.9	2	6	90	0.00	30.114 
09:20	63.7	63.7	63.7	66	52.1	2	5	90	0.00	30.114 
09:25	63.7	63.7	63.7	66	52.1	2	6	90	0.00	30.114 
09:30	63.5	63.5	63.5	65	51.5	3	7	90	0.00	30.112 
09:35	63.4	63.4	63.4	65	51.4	2	6	112	0.00	30.112 
09:40	63.7	63.7	63.7	65	51.7	2	6	90	0.00	30.112 
09:45	63.9	63.9	63.9	66	52.3	3	9	90	0.00	30.115 
09:50	64.0	64.0	64.0	64	51.6	3	7	90	0.00	30.115 
09:55	64.2	64.2	64.2	64	51.8	2	5	112	0.00	30.115 
10:00	64.5	64.5	64.5	64	52.0	2	5	90	0.00	30.115 
10:05	64.8	64.8	64.8	63	51.9	2	6	112	0.00	30.115 
10:10	65.3	65.3	65.3	63	52.4	2	5	112	0.00	30.115 
10:15	65.6	65.6	65.6	62	52.2	3	8	112	0.00	30.107 
10:20	65.6	65.6	65.6	61	51.8	2	8	90	0.00	30.107 
10:25	65.8	65.8	65.8	62	52.4	3	6	90	0.00	30.107 
10:30	66.0	66.0	66.0	61	52.2	3	6	112	0.00	30.095 
10:35	66.0	66.0	66.0	60	51.7	3	9	90	0.00	30.095 
10:40	65.8	65.8	65.8	61	52.0	4	10	90	0.00	30.095 
10:45	66.0	66.0	66.0	61	52.2	3	6	90	0.00	30.075 
10:50	66.8	66.8	66.8	61	52.9	2	6	90	0.00	30.075 
10:55	67.3	67.3	67.3	56	51.1	4	11	90	0.00	30.075 
11:00	67.6	67.6	67.6	57	51.8	2	7	90	0.00	30.063 
11:05	67.3	67.3	67.3	57	51.5	5	11	90	0.00	30.063 
11:10	67.1	67.1	67.1	57	51.3	3	5	90	0.00	30.063 
11:15	67.6	67.6	67.6	54	50.4	3	9	90	0.00	30.069 
11:20	67.9	67.9	67.9	57	52.1	1	7	90	0.00	30.069 
11:25	68.1	68.1	68.1	53	50.3	3	7	90	0.00	30.069 
11:30	68.4	68.4	68.4	53	50.6	2	7	90	0.00	30.081 
11:35	68.9	68.9	68.9	53	51.1	2	5	112	0.00	30.081 
11:40	69.3	69.3	69.3	54	51.9	3	8	112	0.00	30.081 
11:45	69.6	69.6	69.6	53	51.7	1	4	112	0.00	30.092 
11:50	69.9	69.9	69.9	54	52.5	0	3	112	0.00	30.092 
11:55	70.6	70.6	70.6	53	52.6	2	6	90	0.00	30.092 
12:00	70.3	70.3	70.3	53	52.3	3	9	90	0.00	30.094 
12:05	70.4	70.4	70.4	51	51.4	1	5	112	0.00	30.094 
12:10	70.6	70.6	70.6	49	50.5	2	9	68	0.00	30.094 
12:15	70.6	70.6	70.6	50	51.0	1	6	90	0.00	30.094 
12:20	70.9	70.9	70.9	55	53.9	1	4	90	0.00	30.094 
12:25	70.9	70.9	70.9	47	49.7	2	6	90	0.00	30.094 
12:30	71.3	71.3	71.3	49	51.1	2	7	90	0.00	30.086 
12:35	71.5	71.5	71.5	50	51.9	1	5	90	0.00	30.086 
12:40	72.0	72.0	72.0	47	50.7	1	4	112	0.00	30.086 
12:45	71.8	71.8	71.8	46	49.9	3	6	112	0.00	30.075 
12:50	71.8	71.8	71.8	46	49.9	1	4	112	0.00	30.075 
12:55	71.8	71.8	71.8	47	50.5	2	5	90	0.00	30.075 
13:00	72.0	72.0	72.0	43	48.3	2	6	112	0.00	30.074 
13:05	72.3	72.3	72.3	44	49.2	1	6	90	0.00	30.074 
13:10	72.7	72.7	72.7	42	48.3	2	4	90	0.00	30.074 
13:15	72.7	72.7	72.7	40	47.0	2	9	90	0.00	30.070 
13:20	72.8	72.8	72.8	43	49.0	2	6	90	0.00	30.070 
13:25	73.2	73.2	73.2	43	49.3	1	4	90	0.00	30.070 
13:30	72.8	72.8	72.8	44	49.6	3	6	90	0.00	30.042 
13:35	73.2	73.2	73.2	46	51.2	2	4	112	0.00	30.042 
13:40	73.5	73.5	73.5	43	49.6	2	8	90	0.00	30.042 
13:45	73.3	73.3	73.3	42	48.8	3	6	90	0.00	30.030 
13:50	73.5	73.5	73.5	42	49.0	2	6	112	0.00	30.030 
13:55	73.7	73.7	73.7	41	48.5	2	6	112	0.00	30.030 
14:00	73.3	73.3	73.3	44	50.1	2	6	90	0.00	30.032 
14:05	73.5	73.5	73.5	43	49.6	2	6	90	0.00	30.032 
14:10	73.7	73.7	73.7	42	49.2	3	6	90	0.00	30.032 
14:15	73.5	73.5	73.5	42	49.0	2	8	90	0.00	30.025 
14:20	73.9	73.9	73.9	42	49.3	2	5	45	0.00	30.025 
14:25	74.2	74.2	74.2	38	46.9	3	6	90	0.00	30.025 
14:30	74.4	74.4	74.4	40	48.5	2	6	90	0.00	30.021 
14:35	74.6	74.6	74.6	40	48.7	2	4	90	0.00	30.021 
14:40	74.7	74.7	74.7	42	50.1	1	5	68	0.00	30.021 
14:45	74.7	74.7	74.7	42	50.1	2	5	90	0.00	30.017 
14:50	74.7	74.7	74.7	40	48.8	2	6	90	0.00	30.017 
14:55	74.2	74.2	74.2	38	46.9	2	6	90	0.00	30.017 
15:00	74.7	74.7	74.7	42	50.1	1	4	90	0.00	30.008 
15:05	75.3	75.3	77.6	41	50.0	2	6	90	0.00	30.008 
15:10	75.1	75.1	77.6	42	50.4	3	9	90	0.00	30.008 
15:15	74.9	74.9	74.9	40	48.9	3	9	112	0.00	30.007 
15:20	75.1	75.1	77.5	39	48.4	2	5	90	0.00	30.007 
15:25	75.4	75.4	77.6	40	49.4	2	9	90	0.00	30.007 
15:30	75.1	75.1	77.5	40	49.1	3	7	90	0.00	29.998 
15:35	75.3	75.3	77.6	40	49.3	2	5	68	0.00	29.998 
15:40	75.6	75.6	77.7	41	50.2	1	5	68	0.00	29.998 
15:45	75.8	75.8	77.6	37	47.7	3	9	90	0.00	30.009 
15:50	75.6	75.6	77.6	39	48.9	1	5	112	0.00	30.009 
15:55	76.0	76.0	77.8	39	49.2	1	6	112	0.00	30.009 
16:00	76.0	76.0	77.8	39	49.2	2	4	135	0.00	30.010 
16:05	76.1	76.1	77.8	39	49.3	1	6	90	0.00	30.010 
16:10	76.5	76.5	77.9	38	49.0	1	4	112	0.00	30.010 
16:15	76.5	76.5	78.0	39	49.7	2	5	90	0.00	30.006 
16:20	76.3	76.3	77.9	39	49.5	2	4	90	0.00	30.006 
16:25	76.3	76.3	77.8	37	48.1	2	9	90	0.00	30.006 
16:30	76.3	76.3	77.8	38	48.8	2	6	112	0.00	30.005 
16:35	76.1	76.1	77.7	37	47.9	2	5	90	0.00	30.005 
16:40	76.1	76.1	77.8	38	48.6	1	5	90	0.00	30.005 
16:45	76.3	76.3	77.9	39	49.5	0	3	90	0.00	30.009 
16:50	76.5	76.5	77.9	38	49.0	1	5	90	0.00	30.009 
16:55	76.1	76.1	77.9	40	50.0	2	6	90	0.00	30.009 
17:00	76.1	76.1	77.8	38	48.6	1	4	90	0.00	30.002 
17:05	76.1	76.1	77.8	38	48.6	2	7	68	0.00	30.002 
17:10	76.3	76.3	78.0	42	51.5	2	6	90	0.00	30.002 
17:15	76.7	76.7	78.1	39	49.9	0	2	90	0.00	30.008 
17:20	76.7	76.7	78.0	38	49.2	1	3	90	0.00	30.008 
17:25	76.5	76.5	78.0	40	50.4	1	4	90	0.00	30.008 
17:30	76.1	76.1	77.8	38	48.6	2	4	112	0.00	30.010 
17:35	76.1	76.1	77.7	37	47.9	2	6	68	0.00	30.010 
17:40	76.0	76.0	77.7	38	48.5	1	5	112	0.00	30.010 
17:45	76.1	76.1	77.8	38	48.6	1	3	112	0.00	30.009 
17:50	75.8	75.8	77.7	38	48.4	2	5	112	0.00	30.009 
17:55	75.8	75.8	77.6	37	47.7	1	5	90	0.00	30.009 
18:00	75.8	75.8	77.6	37	47.7	1	4	90	0.00	29.997 
18:05	75.8	75.8	77.7	39	49.1	1	6	90	0.00	29.997 
18:10	75.6	75.6	77.6	37	47.5	2	5	90	0.00	29.997 
18:15	75.3	75.3	77.6	41	50.0	1	3	90	0.00	30.000 
18:20	75.3	75.3	77.5	38	47.9	1	3	90	0.00	30.000 
18:25	75.1	75.1	77.5	39	48.4	1	4	90	0.00	30.000 
18:30	75.1	75.1	77.5	39	48.4	1	3	90	0.00	29.996 
18:35	74.9	74.9	74.9	39	48.3	1	5	90	0.00	29.996 
18:40	74.7	74.7	74.7	40	48.8	1	2	90	0.00	29.996 
18:45	74.6	74.6	74.6	40	48.7	2	5	90	0.00	29.992 
18:50	74.4	74.4	74.4	38	47.1	2	5	68	0.00	29.992 
18:55	74.2	74.2	74.2	40	48.3	2	5	112	0.00	29.992 
19:00	74.2	74.2	74.2	39	47.6	1	4	112	0.00	29.983 
19:05	74.0	74.0	74.0	39	47.5	2	7	90	0.00	29.983 
19:10	73.9	73.9	73.9	39	47.4	2	5	90	0.00	29.983 
19:15	73.7	73.7	73.7	39	47.2	3	7	90	0.00	29.975 
19:20	73.7	73.7	73.7	41	48.5	2	5	90	0.00	29.975 
19:25	73.5	73.5	73.5	41	48.3	2	7	90	0.00	29.975 
19:30	73.5	73.5	73.5	40	47.7	3	6	112	0.00	29.972 
19:35	73.3	73.3	73.3	41	48.2	2	6	90	0.00	29.972 
19:40	73.2	73.2	73.2	41	48.1	2	6	90	0.00	29.972 
19:45	72.8	72.8	72.8	42	48.4	1	4	90	0.00	29.976 
19:50	72.8	72.8	72.8	43	49.0	1	4	90	0.00	29.976 
19:55	72.7	72.7	72.7	42	48.3	1	4	90	0.00	29.976 
20:00	72.5	72.5	72.5	42	48.1	2	5	68	0.00	29.968 
20:05	72.5	72.5	72.5	43	48.7	2	5	90	0.00	29.968 
20:10	72.3	72.3	72.3	44	49.2	1	3	90	0.00	29.968 
20:15	72.1	72.1	72.1	45	49.6	2	4	90	0.00	29.963 
20:20	72.1	72.1	72.1	44	49.0	1	4	90	0.00	29.963 
20:25	72.0	72.0	72.0	46	50.1	1	4	90	0.00	29.963 
20:30	71.8	71.8	71.8	44	48.7	1	4	90	0.00	29.965 
20:35	71.6	71.6	71.6	45	49.1	1	4	90	0.00	29.965 
20:40	71.6	71.6	71.6	44	48.5	1	4	90	0.00	29.965 
20:45	71.5	71.5	71.5	44	48.4	1	3	45	0.00	29.966 
20:50	71.3	71.3	71.3	44	48.2	1	3	45	0.00	29.966 
20:55	71.1	71.1	71.1	45	48.7	0	2	45	0.00	29.966 
21:00	70.9	70.9	70.9	46	49.1	0	1	45	0.00	29.975 
21:05	70.8	70.8	70.8	46	49.0	0	2	45	0.00	29.975 
21:10	70.4	70.4	70.4	46	48.6	0	2	45	0.00	29.975 
21:15	70.3	70.3	70.3	47	49.1	0	2	45	0.00	29.977 
21:20	69.9	69.9	69.9	48	49.3	0	3	45	0.00	29.977 
21:25	69.8	69.8	69.8	49	49.8	0	2	45	0.00	29.977 
21:30	69.4	69.4	69.4	49	49.4	0	1	45	0.00	29.983 
21:35	69.3	69.3	69.3	49	49.3	1	4	45	0.00	29.983 
21:40	69.1	69.1	69.1	50	49.7	0	2	45	0.00	29.983 
21:45	68.9	68.9	68.9	51	50.0	0	2	45	0.00	29.984 
21:50	68.6	68.6	68.6	51	49.7	0	2	45	0.00	29.984 
21:55	68.4	68.4	68.4	53	50.6	1	3	68	0.00	29.984 
22:00	68.3	68.3	68.3	53	50.5	2	5	68	0.00	29.991 
22:05	68.1	68.1	68.1	53	50.3	2	5	112	0.00	29.991 
22:10	68.1	68.1	68.1	53	50.3	4	7	112	0.00	29.991 
22:15	67.8	67.8	67.8	53	50.0	3	7	90	0.00	29.991 
22:20	67.4	67.4	67.4	53	49.7	3	7	90	0.00	29.991 
22:25	67.1	67.1	67.1	52	48.9	3	7	90	0.00	29.991 
22:30	66.8	66.8	66.8	52	48.6	3	6	90	0.00	29.993 
22:35	66.6	66.6	66.6	53	48.9	3	7	68	0.00	29.993 
22:40	66.3	66.3	66.3	53	48.6	2	5	90	0.00	29.993 
22:45	66.0	66.0	66.0	53	48.4	3	7	90	0.00	29.995 
22:50	65.8	65.8	65.8	53	48.2	3	7	90	0.00	29.995 
22:55	65.6	65.6	65.6	54	48.5	3	6	90	0.00	29.995 
23:00	65.5	65.5	65.5	54	48.4	3	9	90	0.00	29.991 
23:05	65.3	65.3	65.3	54	48.2	3	9	90	0.00	29.991 
23:10	65.2	65.2	65.2	54	48.1	3	8	90	0.00	29.991 
23:15	65.0	65.0	65.0	55	48.4	2	6	90	0.00	29.991 
23:20	64.7	64.7	64.7	56	48.6	1	4	90	0.00	29.991 
23:25	64.5	64.5	64.5	57	48.9	2	5	90	0.00	29.991 
23:30	64.2	64.2	64.2	57	48.6	2	5	68	0.00	29.989 
23:35	64.0	64.0	64.0	58	48.9	1	3	90	0.00	29.989 
23:40	63.7	63.7	63.7	58	48.6	1	6	90	0.00	29.989 
23:45	63.5	63.5	63.5	59	48.9	2	6	90	0.00	29.991 
23:50	63.4	63.4	63.4	60	49.3	1	3	68	0.00	29.991 
23:55	63.2	63.2	63.2	60	49.1	2	5	68	0.00	29.991 

CoCoRaHS
IN-AL-39
A2 Web Hosting
Creative Commons License
GoDaddy
search engine by freefind advanced

loaded 2018-11-12 15:42:16 • last modified 2010-11-18 10:43:29
Privacy PolicyDisclaimer
• wx.awcolley.com is powered by PmWiki v.2002016 •
• all content (unless otherwise noted) © 2018 A W Colley